sensor_id;sensor_type;location;lat;lon;timestamp;pressure;altitude;pressure_sealevel;temperature;humidity
31331;BME280;34067;39.548;-76.088;2024-02-23T00:01:13;100706.92;;;6.03;75.16
31331;BME280;34067;39.548;-76.088;2024-02-23T00:03:41;100707.93;;;7.41;74.59
31331;BME280;34067;39.548;-76.088;2024-02-23T00:06:09;100720.33;;;6.74;73.42
31331;BME280;34067;39.548;-76.088;2024-02-23T00:08:37;100718.62;;;7.26;72.84
31331;BME280;34067;39.548;-76.088;2024-02-23T00:11:05;100719.39;;;7.86;70.32
31331;BME280;34067;39.548;-76.088;2024-02-23T00:13:33;100725.41;;;7.64;69.88
31331;BME280;34067;39.548;-76.088;2024-02-23T00:16:02;100739.89;;;6.90;72.35
31331;BME280;34067;39.548;-76.088;2024-02-23T00:18:30;100737.23;;;7.31;70.40
31331;BME280;34067;39.548;-76.088;2024-02-23T00:20:57;100739.65;;;7.88;68.98
31331;BME280;34067;39.548;-76.088;2024-02-23T00:23:25;100732.87;;;8.34;68.47
31331;BME280;34067;39.548;-76.088;2024-02-23T00:25:54;100731.64;;;8.64;66.78
31331;BME280;34067;39.548;-76.088;2024-02-23T00:28:22;100730.66;;;8.94;65.76
31331;BME280;34067;39.548;-76.088;2024-02-23T00:30:50;100733.39;;;8.61;65.49
31331;BME280;34067;39.548;-76.088;2024-02-23T00:33:19;100730.88;;;8.70;65.36
31331;BME280;34067;39.548;-76.088;2024-02-23T00:35:47;100716.78;;;8.55;64.97
31331;BME280;34067;39.548;-76.088;2024-02-23T00:38:15;100707.69;;;8.77;64.22
31331;BME280;34067;39.548;-76.088;2024-02-23T00:40:42;100690.69;;;8.66;64.57
31331;BME280;34067;39.548;-76.088;2024-02-23T00:43:10;100677.50;;;8.76;64.08
31331;BME280;34067;39.548;-76.088;2024-02-23T00:45:39;100671.44;;;8.69;64.28
31331;BME280;34067;39.548;-76.088;2024-02-23T00:48:07;100666.14;;;8.53;64.83
31331;BME280;34067;39.548;-76.088;2024-02-23T00:50:35;100654.76;;;8.29;65.21
31331;BME280;34067;39.548;-76.088;2024-02-23T00:53:04;100656.49;;;8.36;64.72
31331;BME280;34067;39.548;-76.088;2024-02-23T00:55:32;100647.34;;;8.49;65.76
31331;BME280;34067;39.548;-76.088;2024-02-23T00:58:00;100634.52;;;8.37;66.35
31331;BME280;34067;39.548;-76.088;2024-02-23T01:00:28;100634.81;;;7.62;66.22
31331;BME280;34067;39.548;-76.088;2024-02-23T01:02:56;100634.75;;;8.91;64.98
31331;BME280;34067;39.548;-76.088;2024-02-23T01:05:25;100628.69;;;7.89;65.77
31331;BME280;34067;39.548;-76.088;2024-02-23T01:07:52;100627.44;;;8.22;66.78
31331;BME280;34067;39.548;-76.088;2024-02-23T01:10:20;100623.77;;;7.87;65.94
31331;BME280;34067;39.548;-76.088;2024-02-23T01:12:47;100618.39;;;8.39;65.84
31331;BME280;34067;39.548;-76.088;2024-02-23T01:15:16;100612.33;;;7.93;65.63
31331;BME280;34067;39.548;-76.088;2024-02-23T01:17:44;100601.28;;;8.19;65.01
31331;BME280;34067;39.548;-76.088;2024-02-23T01:20:13;100597.45;;;8.17;64.94
31331;BME280;34067;39.548;-76.088;2024-02-23T01:22:40;100596.65;;;8.11;65.89
31331;BME280;34067;39.548;-76.088;2024-02-23T01:25:08;100588.62;;;8.05;67.79
31331;BME280;34067;39.548;-76.088;2024-02-23T01:27:36;100575.89;;;7.36;67.86
31331;BME280;34067;39.548;-76.088;2024-02-23T01:30:06;100564.64;;;7.60;67.78
31331;BME280;34067;39.548;-76.088;2024-02-23T01:32:34;100563.95;;;7.61;67.94
31331;BME280;34067;39.548;-76.088;2024-02-23T01:35:02;100561.18;;;7.70;67.41
31331;BME280;34067;39.548;-76.088;2024-02-23T01:37:30;100558.24;;;8.01;66.72
31331;BME280;34067;39.548;-76.088;2024-02-23T01:39:59;100547.95;;;8.07;66.45
31331;BME280;34067;39.548;-76.088;2024-02-23T01:42:27;100550.40;;;7.55;67.85
31331;BME280;34067;39.548;-76.088;2024-02-23T01:44:55;100538.95;;;7.57;67.75
31331;BME280;34067;39.548;-76.088;2024-02-23T01:47:24;100539.06;;;7.98;67.81
31331;BME280;34067;39.548;-76.088;2024-02-23T01:49:53;100524.24;;;7.17;69.00
31331;BME280;34067;39.548;-76.088;2024-02-23T01:52:21;100518.40;;;7.91;67.71
31331;BME280;34067;39.548;-76.088;2024-02-23T01:54:50;100516.44;;;8.09;68.16
31331;BME280;34067;39.548;-76.088;2024-02-23T01:57:18;100505.52;;;7.85;67.39
31331;BME280;34067;39.548;-76.088;2024-02-23T01:59:46;100503.91;;;7.79;66.97
31331;BME280;34067;39.548;-76.088;2024-02-23T02:02:15;100502.41;;;7.68;67.22
31331;BME280;34067;39.548;-76.088;2024-02-23T02:04:42;100497.08;;;7.65;67.69
31331;BME280;34067;39.548;-76.088;2024-02-23T02:07:11;100489.48;;;6.51;68.53
31331;BME280;34067;39.548;-76.088;2024-02-23T02:09:39;100482.76;;;6.98;70.65
31331;BME280;34067;39.548;-76.088;2024-02-23T02:12:07;100476.85;;;7.23;72.03
31331;BME280;34067;39.548;-76.088;2024-02-23T02:14:35;100469.22;;;6.64;71.72
31331;BME280;34067;39.548;-76.088;2024-02-23T02:17:03;100464.66;;;6.75;72.05
31331;BME280;34067;39.548;-76.088;2024-02-23T02:19:31;100452.89;;;6.11;74.75
31331;BME280;34067;39.548;-76.088;2024-02-23T02:21:59;100453.15;;;6.41;75.35
31331;BME280;34067;39.548;-76.088;2024-02-23T02:24:27;100449.49;;;6.87;74.13
31331;BME280;34067;39.548;-76.088;2024-02-23T02:26:55;100452.58;;;7.36;72.49
31331;BME280;34067;39.548;-76.088;2024-02-23T02:29:26;100451.53;;;6.94;71.40
31331;BME280;34067;39.548;-76.088;2024-02-23T02:31:53;100451.84;;;7.39;70.42
31331;BME280;34067;39.548;-76.088;2024-02-23T02:34:21;100448.98;;;7.23;69.56
31331;BME280;34067;39.548;-76.088;2024-02-23T02:36:49;100454.57;;;8.11;68.18
31331;BME280;34067;39.548;-76.088;2024-02-23T02:39:17;100451.02;;;7.93;67.20
31331;BME280;34067;39.548;-76.088;2024-02-23T02:41:45;100445.27;;;8.16;66.45
31331;BME280;34067;39.548;-76.088;2024-02-23T02:44:13;100439.48;;;7.90;65.46
31331;BME280;34067;39.548;-76.088;2024-02-23T02:46:41;100428.91;;;8.46;65.42
31331;BME280;34067;39.548;-76.088;2024-02-23T02:49:09;100421.07;;;7.99;64.75
31331;BME280;34067;39.548;-76.088;2024-02-23T02:51:38;100410.93;;;8.21;64.23
31331;BME280;34067;39.548;-76.088;2024-02-23T02:54:11;100407.04;;;8.15;64.72
31331;BME280;34067;39.548;-76.088;2024-02-23T02:56:43;100385.63;;;8.31;63.20
31331;BME280;34067;39.548;-76.088;2024-02-23T02:59:11;100383.05;;;7.51;64.73
31331;BME280;34067;39.548;-76.088;2024-02-23T03:01:39;100373.20;;;7.38;64.98
31331;BME280;34067;39.548;-76.088;2024-02-23T03:04:08;100373.68;;;7.59;66.10
31331;BME280;34067;39.548;-76.088;2024-02-23T03:06:36;100372.41;;;7.34;67.25
31331;BME280;34067;39.548;-76.088;2024-02-23T03:09:05;100366.38;;;7.83;66.80
31331;BME280;34067;39.548;-76.088;2024-02-23T03:11:32;100373.57;;;7.21;66.05
31331;BME280;34067;39.548;-76.088;2024-02-23T03:14:00;100371.75;;;8.06;65.88
31331;BME280;34067;39.548;-76.088;2024-02-23T03:16:29;100364.51;;;7.97;66.09
31331;BME280;34067;39.548;-76.088;2024-02-23T03:18:57;100365.78;;;6.84;67.42
31331;BME280;34067;39.548;-76.088;2024-02-23T03:21:25;100358.56;;;7.44;66.14
31331;BME280;34067;39.548;-76.088;2024-02-23T03:23:54;100356.07;;;7.99;64.78
31331;BME280;34067;39.548;-76.088;2024-02-23T03:26:22;100352.23;;;8.01;64.38
31331;BME280;34067;39.548;-76.088;2024-02-23T03:28:50;100339.30;;;8.25;64.64
31331;BME280;34067;39.548;-76.088;2024-02-23T03:31:18;100333.61;;;8.50;63.32
31331;BME280;34067;39.548;-76.088;2024-02-23T03:33:47;100329.44;;;8.09;63.22
31331;BME280;34067;39.548;-76.088;2024-02-23T03:36:14;100330.23;;;7.86;63.67
31331;BME280;34067;39.548;-76.088;2024-02-23T03:38:43;100326.09;;;8.03;62.98
31331;BME280;34067;39.548;-76.088;2024-02-23T03:41:11;100318.74;;;7.94;63.35
31331;BME280;34067;39.548;-76.088;2024-02-23T03:43:39;100316.01;;;8.22;63.86
31331;BME280;34067;39.548;-76.088;2024-02-23T03:46:07;100308.81;;;8.50;62.64
31331;BME280;34067;39.548;-76.088;2024-02-23T03:48:34;100306.40;;;8.39;62.87
31331;BME280;34067;39.548;-76.088;2024-02-23T03:51:04;100298.79;;;7.92;63.24
31331;BME280;34067;39.548;-76.088;2024-02-23T03:53:32;100293.44;;;7.75;64.68
31331;BME280;34067;39.548;-76.088;2024-02-23T03:55:59;100289.82;;;7.56;64.81
31331;BME280;34067;39.548;-76.088;2024-02-23T03:58:27;100278.41;;;7.59;64.62
31331;BME280;34067;39.548;-76.088;2024-02-23T04:00:56;100278.62;;;7.83;64.45
31331;BME280;34067;39.548;-76.088;2024-02-23T04:03:24;100278.31;;;7.39;65.26
31331;BME280;34067;39.548;-76.088;2024-02-23T04:05:52;100278.19;;;8.10;64.79
31331;BME280;34067;39.548;-76.088;2024-02-23T04:08:19;100271.74;;;7.75;64.04
31331;BME280;34067;39.548;-76.088;2024-02-23T04:10:47;100270.50;;;8.03;63.65
31331;BME280;34067;39.548;-76.088;2024-02-23T04:13:15;100268.92;;;8.19;62.99
31331;BME280;34067;39.548;-76.088;2024-02-23T04:15:43;100271.62;;;7.53;63.28
31331;BME280;34067;39.548;-76.088;2024-02-23T04:18:10;100270.82;;;7.85;63.66
31331;BME280;34067;39.548;-76.088;2024-02-23T04:20:39;100266.81;;;7.64;63.82
31331;BME280;34067;39.548;-76.088;2024-02-23T04:23:07;100265.07;;;7.85;64.75
31331;BME280;34067;39.548;-76.088;2024-02-23T04:25:35;100261.70;;;8.08;62.99
31331;BME280;34067;39.548;-76.088;2024-02-23T04:28:03;100257.33;;;7.22;63.46
31331;BME280;34067;39.548;-76.088;2024-02-23T04:30:31;100248.86;;;7.31;62.98
31331;BME280;34067;39.548;-76.088;2024-02-23T04:32:59;100241.42;;;7.64;63.04
31331;BME280;34067;39.548;-76.088;2024-02-23T04:35:27;100234.41;;;8.16;62.94
31331;BME280;34067;39.548;-76.088;2024-02-23T04:37:55;100228.71;;;7.19;64.65
31331;BME280;34067;39.548;-76.088;2024-02-23T04:40:22;100225.49;;;7.19;64.56
31331;BME280;34067;39.548;-76.088;2024-02-23T04:42:50;100217.59;;;7.57;63.58
31331;BME280;34067;39.548;-76.088;2024-02-23T04:45:18;100217.52;;;7.73;64.22
31331;BME280;34067;39.548;-76.088;2024-02-23T04:47:46;100210.02;;;7.53;64.92
31331;BME280;34067;39.548;-76.088;2024-02-23T04:50:14;100202.58;;;7.55;64.96
31331;BME280;34067;39.548;-76.088;2024-02-23T04:52:42;100196.86;;;6.89;65.06
31331;BME280;34067;39.548;-76.088;2024-02-23T04:55:11;100196.34;;;7.09;65.94
31331;BME280;34067;39.548;-76.088;2024-02-23T04:57:39;100190.96;;;7.39;65.48
31331;BME280;34067;39.548;-76.088;2024-02-23T05:00:08;100186.50;;;6.98;66.75
31331;BME280;34067;39.548;-76.088;2024-02-23T05:02:36;100179.74;;;6.64;66.59
31331;BME280;34067;39.548;-76.088;2024-02-23T05:05:05;100172.83;;;6.69;67.01
31331;BME280;34067;39.548;-76.088;2024-02-23T05:07:33;100168.65;;;6.84;66.23
31331;BME280;34067;39.548;-76.088;2024-02-23T05:10:01;100170.24;;;7.29;68.29
31331;BME280;34067;39.548;-76.088;2024-02-23T05:12:29;100166.10;;;7.21;69.39
31331;BME280;34067;39.548;-76.088;2024-02-23T05:14:57;100163.77;;;6.07;71.57
31331;BME280;34067;39.548;-76.088;2024-02-23T05:17:25;100161.71;;;6.15;72.51
31331;BME280;34067;39.548;-76.088;2024-02-23T05:19:52;100160.90;;;5.84;72.28
31331;BME280;34067;39.548;-76.088;2024-02-23T05:22:20;100149.74;;;6.17;72.10
31331;BME280;34067;39.548;-76.088;2024-02-23T05:24:48;100151.84;;;5.90;74.18
31331;BME280;34067;39.548;-76.088;2024-02-23T05:27:16;100146.59;;;5.86;73.41
31331;BME280;34067;39.548;-76.088;2024-02-23T05:29:43;100146.00;;;6.09;74.26
31331;BME280;34067;39.548;-76.088;2024-02-23T05:32:11;100143.56;;;5.85;74.99
31331;BME280;34067;39.548;-76.088;2024-02-23T05:34:40;100140.59;;;5.48;76.38
31331;BME280;34067;39.548;-76.088;2024-02-23T05:37:08;100136.10;;;4.80;77.97
31331;BME280;34067;39.548;-76.088;2024-02-23T05:39:36;100128.02;;;5.19;76.87
31331;BME280;34067;39.548;-76.088;2024-02-23T05:42:04;100124.39;;;5.34;76.99
31331;BME280;34067;39.548;-76.088;2024-02-23T05:44:32;100118.04;;;5.67;76.58
31331;BME280;34067;39.548;-76.088;2024-02-23T05:47:00;100114.50;;;5.58;76.00
31331;BME280;34067;39.548;-76.088;2024-02-23T05:49:28;100109.46;;;6.05;74.45
31331;BME280;34067;39.548;-76.088;2024-02-23T05:51:56;100111.00;;;5.82;74.75
31331;BME280;34067;39.548;-76.088;2024-02-23T05:54:24;100107.62;;;5.62;73.76
31331;BME280;34067;39.548;-76.088;2024-02-23T05:56:52;100099.82;;;6.41;73.42
31331;BME280;34067;39.548;-76.088;2024-02-23T05:59:20;100100.22;;;6.86;72.48
31331;BME280;34067;39.548;-76.088;2024-02-23T06:03:16;100093.14;;;6.09;74.26
31331;BME280;34067;39.548;-76.088;2024-02-23T06:05:44;100092.55;;;6.56;72.55
31331;BME280;34067;39.548;-76.088;2024-02-23T06:08:11;100085.33;;;6.26;71.71
31331;BME280;34067;39.548;-76.088;2024-02-23T06:10:39;100079.39;;;5.96;73.04
31331;BME280;34067;39.548;-76.088;2024-02-23T06:13:07;100080.74;;;6.16;75.41
31331;BME280;34067;39.548;-76.088;2024-02-23T06:15:35;100077.96;;;5.73;74.99
31331;BME280;34067;39.548;-76.088;2024-02-23T06:18:03;100077.53;;;7.10;74.22
31331;BME280;34067;39.548;-76.088;2024-02-23T06:20:31;100075.12;;;6.26;74.50
31331;BME280;34067;39.548;-76.088;2024-02-23T06:22:59;100064.81;;;6.52;74.34
31331;BME280;34067;39.548;-76.088;2024-02-23T06:25:27;100060.75;;;5.97;75.69
31331;BME280;34067;39.548;-76.088;2024-02-23T06:27:56;100054.98;;;5.50;77.17
31331;BME280;34067;39.548;-76.088;2024-02-23T06:30:23;100046.81;;;5.34;78.33
31331;BME280;34067;39.548;-76.088;2024-02-23T06:32:52;100042.55;;;5.48;79.66
31331;BME280;34067;39.548;-76.088;2024-02-23T06:35:20;100043.73;;;4.75;79.49
31331;BME280;34067;39.548;-76.088;2024-02-23T06:37:48;100041.62;;;5.29;79.45
31331;BME280;34067;39.548;-76.088;2024-02-23T06:40:16;100043.75;;;6.16;79.75
31331;BME280;34067;39.548;-76.088;2024-02-23T06:42:44;100044.00;;;5.71;78.99
31331;BME280;34067;39.548;-76.088;2024-02-23T06:45:13;100041.40;;;5.66;78.48
31331;BME280;34067;39.548;-76.088;2024-02-23T06:47:40;100035.70;;;5.60;79.17
31331;BME280;34067;39.548;-76.088;2024-02-23T06:50:08;100031.34;;;5.65;78.88
31331;BME280;34067;39.548;-76.088;2024-02-23T06:52:36;100026.50;;;5.50;78.92
31331;BME280;34067;39.548;-76.088;2024-02-23T06:55:05;100026.95;;;5.05;78.17
31331;BME280;34067;39.548;-76.088;2024-02-23T06:57:33;100036.41;;;4.80;81.29
31331;BME280;34067;39.548;-76.088;2024-02-23T07:00:01;100032.93;;;4.40;84.25
31331;BME280;34067;39.548;-76.088;2024-02-23T07:02:29;100021.37;;;4.49;83.93
31331;BME280;34067;39.548;-76.088;2024-02-23T07:04:58;100019.67;;;4.09;86.27
31331;BME280;34067;39.548;-76.088;2024-02-23T07:07:25;100012.33;;;4.63;86.15
31331;BME280;34067;39.548;-76.088;2024-02-23T07:09:53;100002.99;;;4.50;85.89
31331;BME280;34067;39.548;-76.088;2024-02-23T07:12:21;99994.17;;;4.68;85.60
31331;BME280;34067;39.548;-76.088;2024-02-23T07:14:49;99990.37;;;4.24;84.76
31331;BME280;34067;39.548;-76.088;2024-02-23T07:17:18;99982.19;;;4.70;84.80
31331;BME280;34067;39.548;-76.088;2024-02-23T07:19:45;99977.13;;;4.98;86.15
31331;BME280;34067;39.548;-76.088;2024-02-23T07:22:14;99976.97;;;4.79;84.98
31331;BME280;34067;39.548;-76.088;2024-02-23T07:24:42;99975.14;;;4.62;83.44
31331;BME280;34067;39.548;-76.088;2024-02-23T07:27:10;99966.98;;;3.98;85.77
31331;BME280;34067;39.548;-76.088;2024-02-23T07:29:39;99965.47;;;3.91;88.26
31331;BME280;34067;39.548;-76.088;2024-02-23T07:32:07;99960.66;;;3.39;88.20
31331;BME280;34067;39.548;-76.088;2024-02-23T07:34:34;99959.61;;;4.36;87.67
31331;BME280;34067;39.548;-76.088;2024-02-23T07:37:03;99960.80;;;4.93;87.31
31331;BME280;34067;39.548;-76.088;2024-02-23T07:39:31;99952.84;;;4.42;88.96
31331;BME280;34067;39.548;-76.088;2024-02-23T07:41:58;99944.46;;;4.13;91.45
31331;BME280;34067;39.548;-76.088;2024-02-23T07:44:26;99942.98;;;4.53;90.70
31331;BME280;34067;39.548;-76.088;2024-02-23T07:46:53;99943.98;;;3.47;92.33
31331;BME280;34067;39.548;-76.088;2024-02-23T07:49:21;99938.94;;;3.94;92.55
31331;BME280;34067;39.548;-76.088;2024-02-23T07:51:49;99939.22;;;3.89;92.54
31331;BME280;34067;39.548;-76.088;2024-02-23T07:54:16;99932.12;;;2.70;96.68
31331;BME280;34067;39.548;-76.088;2024-02-23T07:56:44;99930.85;;;3.97;94.47
31331;BME280;34067;39.548;-76.088;2024-02-23T07:59:12;99926.61;;;4.48;92.71
31331;BME280;34067;39.548;-76.088;2024-02-23T08:01:40;99929.06;;;3.84;89.87
31331;BME280;34067;39.548;-76.088;2024-02-23T08:04:08;99924.10;;;4.20;92.00
31331;BME280;34067;39.548;-76.088;2024-02-23T08:06:36;99919.60;;;3.38;94.38
31331;BME280;34067;39.548;-76.088;2024-02-23T08:09:04;99908.30;;;3.81;94.73
31331;BME280;34067;39.548;-76.088;2024-02-23T08:11:31;99909.51;;;2.98;97.18
31331;BME280;34067;39.548;-76.088;2024-02-23T08:13:59;99907.88;;;3.61;96.25
31331;BME280;34067;39.548;-76.088;2024-02-23T08:16:26;99897.46;;;3.47;95.29
31331;BME280;34067;39.548;-76.088;2024-02-23T08:18:54;99893.10;;;3.49;95.10
31331;BME280;34067;39.548;-76.088;2024-02-23T08:21:22;99891.53;;;3.14;95.00
31331;BME280;34067;39.548;-76.088;2024-02-23T08:23:49;99891.63;;;3.61;94.94
31331;BME280;34067;39.548;-76.088;2024-02-23T08:26:17;99890.22;;;2.97;94.59
31331;BME280;34067;39.548;-76.088;2024-02-23T08:28:45;99883.65;;;3.64;95.64
31331;BME280;34067;39.548;-76.088;2024-02-23T08:31:12;99878.74;;;4.00;93.37
31331;BME280;34067;39.548;-76.088;2024-02-23T08:33:40;99880.42;;;3.01;94.47
31331;BME280;34067;39.548;-76.088;2024-02-23T08:36:08;99879.54;;;4.54;91.93
31331;BME280;34067;39.548;-76.088;2024-02-23T08:38:36;99881.80;;;4.50;87.97
31331;BME280;34067;39.548;-76.088;2024-02-23T08:41:04;99878.82;;;4.57;85.84
31331;BME280;34067;39.548;-76.088;2024-02-23T08:43:32;99873.36;;;3.75;86.10
31331;BME280;34067;39.548;-76.088;2024-02-23T08:45:59;99866.47;;;4.81;84.87
31331;BME280;34067;39.548;-76.088;2024-02-23T08:48:28;99856.67;;;5.48;83.73
31331;BME280;34067;39.548;-76.088;2024-02-23T08:50:56;99856.65;;;5.35;82.76
31331;BME280;34067;39.548;-76.088;2024-02-23T08:53:24;99865.46;;;5.51;81.70
31331;BME280;34067;39.548;-76.088;2024-02-23T08:55:52;99865.74;;;5.57;81.48
31331;BME280;34067;39.548;-76.088;2024-02-23T08:58:20;99858.90;;;5.59;81.24
31331;BME280;34067;39.548;-76.088;2024-02-23T09:00:48;99852.88;;;5.21;81.14
31331;BME280;34067;39.548;-76.088;2024-02-23T09:03:16;99852.28;;;4.91;81.01
31331;BME280;34067;39.548;-76.088;2024-02-23T09:05:44;99849.32;;;5.66;80.36
31331;BME280;34067;39.548;-76.088;2024-02-23T09:08:12;99836.30;;;5.28;81.96
31331;BME280;34067;39.548;-76.088;2024-02-23T09:10:39;99837.45;;;5.18;82.12
31331;BME280;34067;39.548;-76.088;2024-02-23T09:13:07;99847.49;;;5.59;80.60
31331;BME280;34067;39.548;-76.088;2024-02-23T09:15:35;99858.79;;;6.11;79.60
31331;BME280;34067;39.548;-76.088;2024-02-23T09:18:04;99861.21;;;6.22;79.15
31331;BME280;34067;39.548;-76.088;2024-02-23T09:20:32;99857.84;;;5.33;78.79
31331;BME280;34067;39.548;-76.088;2024-02-23T09:23:00;99847.94;;;5.50;79.60
31331;BME280;34067;39.548;-76.088;2024-02-23T09:25:27;99842.04;;;5.73;79.69
31331;BME280;34067;39.548;-76.088;2024-02-23T09:27:57;99831.92;;;6.15;77.48
31331;BME280;34067;39.548;-76.088;2024-02-23T09:30:25;99828.83;;;5.74;77.06
31331;BME280;34067;39.548;-76.088;2024-02-23T09:32:53;99836.12;;;6.58;76.47
31331;BME280;34067;39.548;-76.088;2024-02-23T09:35:21;99846.86;;;6.59;76.78
31331;BME280;34067;39.548;-76.088;2024-02-23T09:37:49;99840.20;;;6.49;75.03
31331;BME280;34067;39.548;-76.088;2024-02-23T09:40:18;99854.08;;;6.03;74.40
31331;BME280;34067;39.548;-76.088;2024-02-23T09:42:49;99861.50;;;6.33;75.09
31331;BME280;34067;39.548;-76.088;2024-02-23T09:45:20;99870.02;;;6.31;75.68
31331;BME280;34067;39.548;-76.088;2024-02-23T09:47:48;99873.00;;;6.65;75.07
31331;BME280;34067;39.548;-76.088;2024-02-23T09:50:17;99869.09;;;6.14;73.74
31331;BME280;34067;39.548;-76.088;2024-02-23T09:52:46;99882.26;;;6.40;73.90
31331;BME280;34067;39.548;-76.088;2024-02-23T09:55:15;99887.61;;;6.74;73.94
31331;BME280;34067;39.548;-76.088;2024-02-23T09:57:42;99891.44;;;6.23;72.75
31331;BME280;34067;39.548;-76.088;2024-02-23T10:00:12;99898.75;;;6.86;72.25
31331;BME280;34067;39.548;-76.088;2024-02-23T10:02:40;99905.92;;;5.79;75.64
31331;BME280;34067;39.548;-76.088;2024-02-23T10:05:11;99902.59;;;6.16;75.78
31331;BME280;34067;39.548;-76.088;2024-02-23T10:07:39;99898.94;;;6.20;76.05
31331;BME280;34067;39.548;-76.088;2024-02-23T10:10:08;99902.46;;;5.64;76.87
31331;BME280;34067;39.548;-76.088;2024-02-23T10:12:35;99901.76;;;5.64;79.31
31331;BME280;34067;39.548;-76.088;2024-02-23T10:15:03;99892.12;;;4.89;81.94
31331;BME280;34067;39.548;-76.088;2024-02-23T10:17:31;99884.32;;;3.61;87.82
31331;BME280;34067;39.548;-76.088;2024-02-23T10:20:00;99887.41;;;3.86;90.11
31331;BME280;34067;39.548;-76.088;2024-02-23T10:22:30;99879.89;;;4.49;89.32
31331;BME280;34067;39.548;-76.088;2024-02-23T10:24:59;99885.24;;;4.58;89.42
31331;BME280;34067;39.548;-76.088;2024-02-23T10:27:27;99897.14;;;4.03;88.53
31331;BME280;34067;39.548;-76.088;2024-02-23T10:29:55;99906.29;;;3.68;92.09
31331;BME280;34067;39.548;-76.088;2024-02-23T10:32:23;99897.31;;;3.15;93.39
31331;BME280;34067;39.548;-76.088;2024-02-23T10:34:53;99886.54;;;3.86;92.65
31331;BME280;34067;39.548;-76.088;2024-02-23T10:37:23;99890.04;;;3.56;93.47
31331;BME280;34067;39.548;-76.088;2024-02-23T10:39:56;99888.10;;;3.29;94.82
31331;BME280;34067;39.548;-76.088;2024-02-23T10:42:28;99897.06;;;3.40;96.11
31331;BME280;34067;39.548;-76.088;2024-02-23T10:44:58;99903.03;;;3.49;94.76
31331;BME280;34067;39.548;-76.088;2024-02-23T10:47:26;99890.66;;;2.21;100.00
31331;BME280;34067;39.548;-76.088;2024-02-23T10:49:56;99888.23;;;4.21;96.23
31331;BME280;34067;39.548;-76.088;2024-02-23T10:52:28;99875.42;;;2.92;96.98
31331;BME280;34067;39.548;-76.088;2024-02-23T10:54:56;99875.36;;;2.92;98.68
31331;BME280;34067;39.548;-76.088;2024-02-23T10:57:25;99878.05;;;3.00;96.40
31331;BME280;34067;39.548;-76.088;2024-02-23T10:59:53;99886.70;;;2.84;98.12
31331;BME280;34067;39.548;-76.088;2024-02-23T11:02:22;99896.50;;;3.36;97.78
31331;BME280;34067;39.548;-76.088;2024-02-23T11:04:52;99900.62;;;2.73;98.39
31331;BME280;34067;39.548;-76.088;2024-02-23T11:07:23;99906.28;;;2.96;98.16
31331;BME280;34067;39.548;-76.088;2024-02-23T11:09:52;99904.75;;;3.26;97.98
31331;BME280;34067;39.548;-76.088;2024-02-23T11:12:24;99910.07;;;3.31;98.66
31331;BME280;34067;39.548;-76.088;2024-02-23T11:14:56;99903.95;;;2.64;100.00
31331;BME280;34067;39.548;-76.088;2024-02-23T11:17:27;99903.81;;;2.82;100.00
31331;BME280;34067;39.548;-76.088;2024-02-23T11:19:56;99910.46;;;2.88;100.00
31331;BME280;34067;39.548;-76.088;2024-02-23T11:22:25;99917.57;;;2.81;99.37
31331;BME280;34067;39.548;-76.088;2024-02-23T11:24:59;99920.84;;;2.55;98.96
31331;BME280;34067;39.548;-76.088;2024-02-23T11:27:31;99918.93;;;3.56;95.87
31331;BME280;34067;39.548;-76.088;2024-02-23T11:30:01;99921.15;;;2.65;99.41
31331;BME280;34067;39.548;-76.088;2024-02-23T11:32:38;99937.71;;;2.56;100.00
31331;BME280;34067;39.548;-76.088;2024-02-23T11:35:07;99946.64;;;2.55;100.00
31331;BME280;34067;39.548;-76.088;2024-02-23T11:37:46;99953.13;;;2.25;100.00
31331;BME280;34067;39.548;-76.088;2024-02-23T11:40:17;99952.97;;;3.73;97.28
31331;BME280;34067;39.548;-76.088;2024-02-23T11:42:45;99952.33;;;2.93;96.40
31331;BME280;34067;39.548;-76.088;2024-02-23T11:45:15;99956.21;;;2.67;94.35
31331;BME280;34067;39.548;-76.088;2024-02-23T11:47:42;99962.44;;;3.26;94.49
31331;BME280;34067;39.548;-76.088;2024-02-23T11:50:10;99962.25;;;3.48;92.13
31331;BME280;34067;39.548;-76.088;2024-02-23T11:52:39;99960.55;;;3.59;91.64
31331;BME280;34067;39.548;-76.088;2024-02-23T11:55:07;99961.67;;;4.09;89.79
31331;BME280;34067;39.548;-76.088;2024-02-23T11:57:35;99949.97;;;4.24;88.12
31331;BME280;34067;39.548;-76.088;2024-02-23T12:00:04;99936.97;;;3.22;92.01
31331;BME280;34067;39.548;-76.088;2024-02-23T12:02:32;99933.05;;;3.64;91.37
31331;BME280;34067;39.548;-76.088;2024-02-23T12:05:00;99937.61;;;2.81;94.90
31331;BME280;34067;39.548;-76.088;2024-02-23T12:07:30;99935.09;;;3.51;92.97
31331;BME280;34067;39.548;-76.088;2024-02-23T12:09:58;99930.17;;;2.95;93.77
31331;BME280;34067;39.548;-76.088;2024-02-23T12:12:26;99928.62;;;3.51;94.08
31331;BME280;34067;39.548;-76.088;2024-02-23T12:14:53;99936.01;;;3.77;94.93
31331;BME280;34067;39.548;-76.088;2024-02-23T12:17:21;99935.98;;;3.52;93.64
31331;BME280;34067;39.548;-76.088;2024-02-23T12:19:49;99945.00;;;3.26;92.98
31331;BME280;34067;39.548;-76.088;2024-02-23T12:22:17;99948.76;;;3.61;91.71
31331;BME280;34067;39.548;-76.088;2024-02-23T12:24:46;99953.10;;;4.90;88.73
31331;BME280;34067;39.548;-76.088;2024-02-23T12:27:17;99951.81;;;4.12;88.13
31331;BME280;34067;39.548;-76.088;2024-02-23T12:29:52;99946.76;;;4.61;85.20
31331;BME280;34067;39.548;-76.088;2024-02-23T12:32:21;99946.71;;;4.72;83.25
31331;BME280;34067;39.548;-76.088;2024-02-23T12:34:49;99946.16;;;4.16;85.96
31331;BME280;34067;39.548;-76.088;2024-02-23T12:37:18;99946.38;;;4.51;83.48
31331;BME280;34067;39.548;-76.088;2024-02-23T12:39:45;99948.04;;;5.59;81.63
31331;BME280;34067;39.548;-76.088;2024-02-23T12:42:13;99951.40;;;5.37;79.50
31331;BME280;34067;39.548;-76.088;2024-02-23T12:44:43;99958.06;;;5.69;80.39
31331;BME280;34067;39.548;-76.088;2024-02-23T12:47:11;99961.89;;;5.07;81.82
31331;BME280;34067;39.548;-76.088;2024-02-23T12:49:39;99962.46;;;4.76;80.23
31331;BME280;34067;39.548;-76.088;2024-02-23T12:52:06;99970.90;;;4.36;83.96